Time;durP1;ratioP1;P1;durP2;ratioP2;P2;SDS_P1;SDS_P2;PMS_P1;PMS_P2;Temp;Humidity;BMP_temperature;BMP_pressure;BME280_temperature;BME280_humidity;BME280_pressure;Samples;Min_cycle;Max_cycle;Signal;HPM_P1;HPM_P2
2023/11/09 00:01:44;;;;;;;6.38;3.30;;;22.60;57.50;;;;;;6049999;23;90344;-86
2023/11/09 00:04:10;;;;;;;5.15;3.25;;;22.60;57.40;;;;;;6053166;23;87830;-87
2023/11/09 00:06:35;;;;;;;6.25;3.47;;;22.50;57.60;;;;;;6049772;23;87402;-86
2023/11/09 00:09:01;;;;;;;6.15;2.88;;;22.50;57.70;;;;;;6051704;23;87457;-86
2023/11/09 00:11:27;;;;;;;9.43;3.45;;;22.50;57.60;;;;;;6053738;23;88358;-87
2023/11/09 00:13:52;;;;;;;8.02;3.40;;;22.50;57.60;;;;;;6051232;23;90377;-87
2023/11/09 00:16:18;;;;;;;5.40;2.60;;;22.50;57.70;;;;;;6052888;23;87542;-86
2023/11/09 00:18:44;;;;;;;5.47;2.95;;;22.40;57.80;;;;;;6050426;23;89067;-86
2023/11/09 00:21:09;;;;;;;6.07;3.33;;;22.40;57.90;;;;;;6053288;23;89541;-86
2023/11/09 00:23:35;;;;;;;4.75;3.08;;;22.40;57.80;;;;;;6052201;23;91156;-89
2023/11/09 00:26:03;;;;;;;5.60;3.33;;;22.40;57.80;;;;;;6050986;23;87623;-87
2023/11/09 00:28:29;;;;;;;7.45;3.33;;;22.40;57.80;;;;;;6050434;23;88971;-87
2023/11/09 00:30:55;;;;;;;5.13;3.10;;;22.40;57.70;;;;;;6050701;23;90310;-86
2023/11/09 00:33:20;;;;;;;6.75;3.00;;;22.40;57.70;;;;;;6051503;23;90064;-89
2023/11/09 00:35:47;;;;;;;6.68;3.38;;;22.30;57.70;;;;;;6052716;23;87596;-87
2023/11/09 00:38:15;;;;;;;5.40;2.95;;;22.40;57.70;;;;;;6054678;23;86819;-87
2023/11/09 00:40:41;;;;;;;6.45;3.03;;;22.40;57.70;;;;;;6051283;23;90547;-87
2023/11/09 00:43:07;;;;;;;5.20;2.78;;;22.30;57.70;;;;;;6051071;23;89658;-86
2023/11/09 00:45:34;;;;;;;6.80;3.03;;;22.30;57.70;;;;;;6051413;23;88377;-86
2023/11/09 00:48:02;;;;;;;5.35;2.78;;;22.30;57.80;;;;;;6052474;23;87371;-86
2023/11/09 00:50:28;;;;;;;5.75;3.03;;;22.30;57.70;;;;;;6050370;23;90812;-87
2023/11/09 00:52:53;;;;;;;5.20;3.00;;;22.20;57.50;;;;;;6052921;23;87714;-87
2023/11/09 00:55:19;;;;;;;4.35;3.05;;;22.20;57.60;;;;;;6052171;23;87452;-86
2023/11/09 00:57:48;;;;;;;5.00;2.72;;;22.30;57.60;;;;;;6051656;23;87578;-87
2023/11/09 01:00:14;;;;;;;6.30;3.13;;;22.20;57.60;;;;;;6051940;23;87614;-86
2023/11/09 01:02:42;;;;;;;6.30;3.20;;;22.20;57.60;;;;;;6050059;23;89646;-87
2023/11/09 01:05:09;;;;;;;5.30;2.93;;;22.20;57.60;;;;;;6053425;23;87932;-86
2023/11/09 01:07:36;;;;;;;5.05;2.85;;;22.20;57.60;;;;;;6051940;23;87271;-87
2023/11/09 01:10:04;;;;;;;6.75;3.42;;;22.20;57.60;;;;;;6049710;23;90470;-89
2023/11/09 01:12:30;;;;;;;6.18;2.58;;;22.20;57.80;;;;;;6049998;23;91173;-87
2023/11/09 01:14:55;;;;;;;5.90;2.75;;;22.20;57.70;;;;;;6052339;23;87256;-86
2023/11/09 01:17:21;;;;;;;4.32;2.63;;;22.20;57.50;;;;;;6053825;23;87459;-88
2023/11/09 01:19:46;;;;;;;4.85;2.88;;;22.20;57.60;;;;;;6051883;23;87925;-85
2023/11/09 01:22:12;;;;;;;4.90;2.40;;;22.10;57.80;;;;;;6051426;23;87232;-89
2023/11/09 01:24:38;;;;;;;4.93;2.70;;;22.10;57.50;;;;;;6052026;23;87475;-87
2023/11/09 01:27:04;;;;;;;5.03;2.80;;;22.10;57.60;;;;;;6052942;23;86721;-88
2023/11/09 01:29:30;;;;;;;5.00;2.85;;;22.10;57.60;;;;;;6053245;23;88502;-86
2023/11/09 01:31:57;;;;;;;4.53;2.55;;;22.10;57.60;;;;;;6053666;23;87640;-86
2023/11/09 01:34:23;;;;;;;4.75;2.55;;;22.10;57.80;;;;;;6049263;23;88516;-87
2023/11/09 01:36:50;;;;;;;5.03;2.70;;;22.10;57.70;;;;;;6052863;23;87601;-87
2023/11/09 01:39:15;;;;;;;5.90;2.72;;;22.10;57.60;;;;;;6050884;23;90101;-86
2023/11/09 01:41:42;;;;;;;3.75;2.33;;;22.00;57.50;;;;;;6050813;23;89123;-88
2023/11/09 01:44:08;;;;;;;5.88;3.00;;;22.00;57.50;;;;;;6051349;23;87059;-87
2023/11/09 01:46:33;;;;;;;6.53;2.78;;;22.00;57.50;;;;;;6052885;23;87637;-87
2023/11/09 01:49:00;;;;;;;5.13;2.50;;;22.00;57.30;;;;;;6050654;23;90160;-89
2023/11/09 01:51:28;;;;;;;4.28;2.38;;;22.00;57.40;;;;;;6053505;23;87444;-87
2023/11/09 01:53:54;;;;;;;4.82;2.53;;;22.00;57.50;;;;;;6051888;23;88810;-88
2023/11/09 01:56:22;;;;;;;4.00;2.45;;;22.00;57.70;;;;;;6050609;23;89780;-86
2023/11/09 01:58:49;;;;;;;5.55;2.40;;;22.00;57.80;;;;;;6051385;23;88682;-86
2023/11/09 02:01:18;;;;;;;4.63;2.83;;;22.00;57.70;;;;;;6052558;23;87522;-87
2023/11/09 02:03:44;;;;;;;3.95;2.28;;;22.00;57.60;;;;;;6051787;23;87503;-86
2023/11/09 02:06:10;;;;;;;3.67;2.13;;;22.00;57.60;;;;;;6050665;23;87591;-87
2023/11/09 02:08:43;;;;;;;4.95;2.50;;;21.90;57.50;;;;;;6052446;23;87652;-87
2023/11/09 02:11:09;;;;;;;3.95;2.33;;;21.90;57.60;;;;;;6052313;23;90998;-86
2023/11/09 02:13:34;;;;;;;5.65;2.75;;;21.90;57.60;;;;;;6052266;23;87209;-87
2023/11/09 02:16:02;;;;;;;3.28;2.17;;;21.90;57.50;;;;;;6052512;23;86658;-88
2023/11/09 02:18:31;;;;;;;4.80;2.53;;;21.90;57.50;;;;;;6051323;23;87462;-86
2023/11/09 02:20:57;;;;;;;3.92;2.20;;;21.90;57.50;;;;;;6050409;23;90077;-87
2023/11/09 02:23:26;;;;;;;3.33;1.90;;;21.90;57.50;;;;;;6050963;23;88572;-87
2023/11/09 02:25:53;;;;;;;4.07;2.38;;;21.90;57.40;;;;;;6050011;23;88990;-87
2023/11/09 02:28:19;;;;;;;5.03;2.53;;;21.90;57.60;;;;;;6053699;23;89576;-88
2023/11/09 02:30:45;;;;;;;3.83;1.92;;;21.90;57.60;;;;;;6052623;23;90228;-89
2023/11/09 02:33:11;;;;;;;4.85;2.47;;;21.90;57.60;;;;;;6051798;23;87251;-89
2023/11/09 02:35:38;;;;;;;4.47;2.35;;;21.90;57.50;;;;;;6051358;23;89695;-89
2023/11/09 02:38:04;;;;;;;3.80;2.05;;;21.90;57.70;;;;;;6050785;23;91913;-89
2023/11/09 02:40:29;;;;;;;3.40;2.30;;;21.80;57.70;;;;;;6051681;23;90325;-88
2023/11/09 02:42:56;;;;;;;2.63;2.00;;;21.80;57.80;;;;;;6051999;23;87965;-89
2023/11/09 02:45:22;;;;;;;5.30;2.83;;;21.80;57.90;;;;;;6041944;23;89251;-89
2023/11/09 02:47:47;;;;;;;4.68;2.17;;;21.80;58.00;;;;;;6049320;23;91336;-88
2023/11/09 02:50:14;;;;;;;5.80;2.55;;;21.80;58.30;;;;;;6054529;23;88941;-90
2023/11/09 02:52:41;;;;;;;2.85;1.45;;;21.80;58.10;;;;;;6038869;23;87504;-88
2023/11/09 02:55:07;;;;;;;4.22;2.63;;;21.80;58.10;;;;;;6050962;23;89585;-88
2023/11/09 02:57:32;;;;;;;3.30;1.95;;;21.80;58.20;;;;;;6051211;23;90170;-88
2023/11/09 02:59:59;;;;;;;5.93;2.25;;;21.80;58.00;;;;;;6050730;23;88845;-90
2023/11/09 03:02:27;;;;;;;5.28;2.30;;;21.80;57.90;;;;;;6051896;23;87449;-88
2023/11/09 03:04:53;;;;;;;4.72;2.60;;;21.80;58.10;;;;;;6051215;23;88930;-90
2023/11/09 03:07:19;;;;;;;4.15;2.35;;;21.80;58.00;;;;;;6052312;23;87406;-88
2023/11/09 03:09:44;;;;;;;3.05;2.13;;;21.80;57.90;;;;;;6050332;23;90677;-90
2023/11/09 03:12:10;;;;;;;3.42;1.83;;;21.80;57.80;;;;;;6050083;23;88691;-88
2023/11/09 03:14:36;;;;;;;3.90;1.90;;;21.80;57.70;;;;;;6054153;23;87475;-87
2023/11/09 03:17:10;;;;;;;5.18;2.00;;;21.80;57.80;;;;;;6051070;23;89717;-87
2023/11/09 03:19:37;;;;;;;3.72;1.85;;;21.80;57.60;;;;;;6051216;23;90202;-88
2023/11/09 03:22:07;;;;;;;4.60;1.90;;;21.70;57.50;;;;;;6056487;23;87429;-90
2023/11/09 03:24:33;;;;;;;;;;;21.70;57.60;;;;;;6060066;23;88611;-90
2023/11/09 03:27:02;;;;;;;4.00;2.03;;;21.70;57.60;;;;;;6058473;23;90188;-87
2023/11/09 03:29:28;;;;;;;3.75;2.15;;;21.70;57.50;;;;;;6054367;23;90491;-90
2023/11/09 03:31:54;;;;;;;3.63;1.95;;;21.70;57.50;;;;;;6052348;23;87917;-87
2023/11/09 03:34:19;;;;;;;3.50;2.00;;;21.70;57.50;;;;;;6027912;23;89292;-88
2023/11/09 03:36:45;;;;;;;3.20;1.98;;;21.70;57.60;;;;;;6052124;23;89667;-87
2023/11/09 03:39:11;;;;;;;3.28;1.65;;;21.70;57.50;;;;;;6054961;23;87634;-88
2023/11/09 03:41:36;;;;;;;3.08;1.90;;;21.70;57.60;;;;;;6055436;23;87309;-87
2023/11/09 03:44:02;;;;;;;3.33;1.95;;;21.70;57.60;;;;;;6052946;23;87503;-87
2023/11/09 03:46:28;;;;;;;3.50;1.92;;;21.60;57.60;;;;;;6053785;23;87776;-89
2023/11/09 03:48:53;;;;;;;2.75;1.83;;;21.60;57.50;;;;;;6050818;23;89363;-89
2023/11/09 03:51:19;;;;;;;3.20;1.52;;;21.70;57.70;;;;;;6052652;23;87694;-87
2023/11/09 03:53:44;;;;;;;4.40;2.05;;;21.70;57.50;;;;;;6054946;23;86478;-88
2023/11/09 03:56:10;;;;;;;3.85;1.70;;;21.60;57.50;;;;;;6054976;23;87693;-89
2023/11/09 03:58:36;;;;;;;3.78;1.80;;;21.60;57.50;;;;;;6051723;23;90044;-88
2023/11/09 04:01:02;;;;;;;2.85;1.98;;;21.60;57.50;;;;;;6050804;23;88186;-87
2023/11/09 04:03:28;;;;;;;4.15;2.10;;;21.60;57.60;;;;;;6050841;23;89200;-87
2023/11/09 04:05:54;;;;;;;3.00;1.77;;;21.60;57.40;;;;;;6050907;23;92022;-89
2023/11/09 04:08:19;;;;;;;2.30;1.45;;;21.60;57.50;;;;;;6052764;23;88594;-88
2023/11/09 04:10:46;;;;;;;2.92;1.70;;;21.60;57.50;;;;;;6050989;23;87558;-87
2023/11/09 04:13:12;;;;;;;3.63;1.92;;;21.60;57.40;;;;;;6050394;23;88815;-88
2023/11/09 04:15:40;;;;;;;2.33;1.55;;;21.60;57.50;;;;;;6052636;23;88136;-87
2023/11/09 04:18:06;;;;;;;3.22;1.88;;;21.60;57.50;;;;;;6052039;23;90290;-90
2023/11/09 04:20:31;;;;;;;2.70;1.70;;;21.60;57.60;;;;;;6051686;23;87138;-89
2023/11/09 04:22:58;;;;;;;3.10;1.73;;;21.60;57.70;;;;;;6052688;23;87319;-88
2023/11/09 04:25:24;;;;;;;2.72;1.58;;;21.60;57.70;;;;;;6050138;23;91363;-89
2023/11/09 04:27:50;;;;;;;1.65;1.38;;;21.60;57.60;;;;;;6053063;23;88664;-88
2023/11/09 04:30:16;;;;;;;2.60;1.73;;;21.60;57.50;;;;;;6054161;23;87485;-87
2023/11/09 04:32:42;;;;;;;3.35;1.63;;;21.50;57.40;;;;;;6050789;23;88302;-87
2023/11/09 04:35:11;;;;;;;2.45;1.67;;;21.50;57.60;;;;;;6051824;23;90302;-87
2023/11/09 04:37:41;;;;;;;2.20;1.60;;;21.50;57.60;;;;;;6050548;23;90181;-89
2023/11/09 04:40:15;;;;;;;3.70;1.95;;;21.50;57.60;;;;;;6054395;23;87605;-88
2023/11/09 04:42:46;;;;;;;2.28;1.50;;;21.50;57.50;;;;;;6051034;23;90147;-86
2023/11/09 04:45:12;;;;;;;2.47;1.60;;;21.50;57.50;;;;;;6041004;23;88287;-87
2023/11/09 04:47:42;;;;;;;2.33;1.55;;;21.50;57.40;;;;;;6051985;23;90104;-87
2023/11/09 04:50:15;;;;;;;2.13;1.35;;;21.50;58.10;;;;;;6053588;23;88731;-89
2023/11/09 04:52:44;;;;;;;1.58;1.15;;;21.50;57.40;;;;;;6051546;23;88126;-88
2023/11/09 04:55:20;;;;;;;3.25;1.70;;;21.50;58.10;;;;;;6053312;23;87591;-89
2023/11/09 05:08:43;;;;;;;2.88;1.83;;;21.50;57.60;;;;;;6052001;23;87367;-88
2023/11/09 05:11:14;;;;;;;3.38;1.88;;;21.50;57.40;;;;;;6053462;23;87153;-88
2023/11/09 05:13:40;;;;;;;3.08;1.63;;;21.50;57.30;;;;;;6050109;23;89535;-87
2023/11/09 05:16:07;;;;;;;1.67;1.27;;;21.50;57.30;;;;;;6050634;23;91835;-87
2023/11/09 05:18:32;;;;;;;3.13;2.10;;;21.40;57.20;;;;;;6053355;23;88356;-88
2023/11/09 05:20:59;;;;;;;1.52;1.42;;;21.40;57.20;;;;;;6052702;23;87375;-87
2023/11/09 05:23:25;;;;;;;2.90;1.60;;;21.40;57.30;;;;;;6054898;23;87183;-89
2023/11/09 05:25:51;;;;;;;1.92;1.35;;;21.40;57.30;;;;;;6050969;23;90693;-88
2023/11/09 05:28:18;;;;;;;2.28;1.48;;;21.40;57.30;;;;;;6053668;23;87678;-89
2023/11/09 05:30:46;;;;;;;1.63;1.25;;;21.40;57.40;;;;;;6051582;23;87546;-88
2023/11/09 05:33:11;;;;;;;2.80;1.55;;;21.40;57.20;;;;;;6052969;23;86762;-86
2023/11/09 05:35:39;;;;;;;1.48;1.23;;;21.40;57.40;;;;;;6053048;23;87638;-88
2023/11/09 05:38:05;;;;;;;2.10;1.45;;;21.40;57.30;;;;;;6053181;23;92429;-89
2023/11/09 05:40:30;;;;;;;2.58;1.48;;;21.40;57.30;;;;;;6050351;23;88699;-86
2023/11/09 05:42:56;;;;;;;4.07;1.58;;;21.40;57.50;;;;;;6050356;23;89378;-88
2023/11/09 05:45:22;;;;;;;2.40;1.38;;;21.40;57.40;;;;;;6050802;23;89059;-86
2023/11/09 05:47:47;;;;;;;2.38;1.52;;;21.40;57.50;;;;;;6040661;23;88033;-87
2023/11/09 05:50:13;;;;;;;2.10;1.38;;;21.30;57.40;;;;;;6074814;23;87462;-89
2023/11/09 05:52:40;;;;;;;2.20;1.33;;;21.30;57.40;;;;;;6050498;23;88342;-87
2023/11/09 05:55:06;;;;;;;3.28;1.40;;;21.40;57.40;;;;;;6050527;23;90312;-87
2023/11/09 05:57:33;;;;;;;2.85;1.48;;;21.30;57.30;;;;;;6050814;23;90131;-86
2023/11/09 05:59:59;;;;;;;1.77;1.45;;;21.30;57.30;;;;;;6051035;23;92832;-86
2023/11/09 06:02:24;;;;;;;1.58;1.20;;;21.30;57.40;;;;;;6052376;23;89604;-87
2023/11/09 06:04:51;;;;;;;3.03;1.27;;;21.30;57.30;;;;;;6049794;23;91624;-86
2023/11/09 06:07:17;;;;;;;1.73;1.10;;;21.30;57.40;;;;;;6050310;23;91385;-85
2023/11/09 06:09:43;;;;;;;1.50;1.10;;;21.30;57.40;;;;;;6051162;23;87543;-88
2023/11/09 06:12:09;;;;;;;2.35;1.17;;;21.30;57.60;;;;;;6051553;23;89405;-85
2023/11/09 06:14:36;;;;;;;2.75;1.27;;;21.30;57.50;;;;;;6052127;23;91061;-86
2023/11/09 06:17:02;;;;;;;1.35;0.90;;;21.30;57.30;;;;;;6052777;23;87649;-85
2023/11/09 06:19:28;;;;;;;2.28;1.23;;;21.30;57.20;;;;;;6051571;23;87044;-86
2023/11/09 06:21:56;;;;;;;2.35;1.50;;;21.30;57.30;;;;;;6053099;23;86996;-86
2023/11/09 06:24:22;;;;;;;2.08;1.23;;;21.30;57.20;;;;;;6051682;23;88047;-86
2023/11/09 06:26:53;;;;;;;2.15;1.20;;;21.30;57.20;;;;;;6053157;23;88229;-88
2023/11/09 06:29:19;;;;;;;1.65;1.20;;;21.30;57.40;;;;;;6051125;23;88405;-87
2023/11/09 06:31:45;;;;;;;2.03;1.20;;;21.30;57.20;;;;;;6052767;23;87538;-89
2023/11/09 06:34:14;;;;;;;1.52;1.02;;;21.30;57.30;;;;;;6053716;23;87913;-86
2023/11/09 06:36:44;;;;;;;1.67;1.10;;;21.30;57.30;;;;;;6050088;23;90645;-88
2023/11/09 06:39:14;;;;;;;1.67;1.02;;;21.30;57.10;;;;;;6051332;23;87503;-88
2023/11/09 06:41:39;;;;;;;;;;;21.30;57.40;;;;;;6051368;23;89104;-86
2023/11/09 06:44:05;;;;;;;1.42;1.10;;;21.30;57.40;;;;;;6056247;23;88464;-87
2023/11/09 06:46:31;;;;;;;5.32;1.35;;;21.20;57.40;;;;;;6051742;23;89254;-86
2023/11/09 06:48:57;;;;;;;1.58;1.05;;;21.20;57.40;;;;;;6052865;23;88273;-87
2023/11/09 06:51:23;;;;;;;2.50;1.00;;;21.20;57.30;;;;;;6053627;23;86948;-87
2023/11/09 06:53:50;;;;;;;4.43;1.35;;;21.20;57.40;;;;;;6050047;23;91184;-85
2023/11/09 06:56:17;;;;;;;2.20;1.50;;;21.20;57.30;;;;;;6053678;23;88772;-85
2023/11/09 06:58:42;;;;;;;1.33;1.02;;;21.20;58.00;;;;;;6050612;23;88751;-87
2023/11/09 07:01:08;;;;;;;1.52;1.08;;;21.20;57.40;;;;;;6051791;23;89163;-87
2023/11/09 07:03:36;;;;;;;2.28;1.10;;;21.20;57.30;;;;;;6053286;23;89130;-87
2023/11/09 07:06:01;;;;;;;2.33;1.30;;;21.20;57.40;;;;;;6051229;23;89950;-86
2023/11/09 07:08:28;;;;;;;1.83;1.13;;;21.20;57.10;;;;;;6054099;23;87460;-87
2023/11/09 07:10:54;;;;;;;3.80;1.60;;;21.20;57.30;;;;;;6052054;23;89328;-87
2023/11/09 07:13:20;;;;;;;1.70;1.15;;;21.20;57.40;;;;;;6052685;23;88034;-85
2023/11/09 07:15:47;;;;;;;2.17;1.20;;;21.20;57.40;;;;;;6053340;23;88098;-88
2023/11/09 07:18:14;;;;;;;1.85;1.23;;;21.20;57.20;;;;;;6050773;23;88204;-86
2023/11/09 07:20:41;;;;;;;2.55;1.30;;;21.20;57.30;;;;;;6050170;23;89396;-86
2023/11/09 07:23:07;;;;;;;1.38;1.02;;;21.20;57.30;;;;;;6054514;23;87737;-88
2023/11/09 07:25:36;;;;;;;1.48;0.93;;;21.20;57.40;;;;;;6052592;23;87876;-85
2023/11/09 07:28:03;;;;;;;;;;;21.20;57.40;;;;;;6054698;23;87088;-86
2023/11/09 07:30:31;;;;;;;1.20;0.93;;;21.20;57.50;;;;;;6053077;23;89354;-87
2023/11/09 07:32:59;;;;;;;1.98;1.20;;;21.20;57.30;;;;;;6051970;23;90320;-88
2023/11/09 07:35:25;;;;;;;1.70;1.10;;;21.20;57.20;;;;;;6054148;23;87477;-87
2023/11/09 07:37:51;;;;;;;1.27;0.98;;;21.20;57.30;;;;;;6053161;23;87529;-87
2023/11/09 07:40:18;;;;;;;1.75;1.05;;;21.20;57.30;;;;;;6052898;23;88984;-86
2023/11/09 07:42:43;;;;;;;2.85;0.85;;;21.20;57.20;;;;;;6041068;23;90917;-88
2023/11/09 07:45:12;;;;;;;1.73;1.10;;;21.20;57.30;;;;;;6051015;23;91501;-89
2023/11/09 07:47:37;;;;;;;2.63;1.10;;;21.20;57.30;;;;;;6052360;23;88114;-89
2023/11/09 07:50:05;;;;;;;4.90;1.42;;;21.20;57.30;;;;;;6052068;23;89632;-88
2023/11/09 07:52:31;;;;;;;4.25;1.50;;;21.10;57.10;;;;;;6055673;23;87409;-89
2023/11/09 07:54:56;;;;;;;2.97;1.02;;;21.20;57.10;;;;;;6051106;23;90287;-87
2023/11/09 07:57:22;;;;;;;4.60;1.70;;;21.20;57.20;;;;;;6049533;23;87345;-86
2023/11/09 07:59:48;;;;;;;3.00;1.45;;;21.20;56.00;;;;;;6052761;23;86695;-85
2023/11/09 08:02:14;;;;;;;7.13;1.45;;;21.20;56.00;;;;;;6053535;23;90073;-85
2023/11/09 08:04:41;;;;;;;4.05;1.42;;;21.30;56.50;;;;;;6054349;23;87731;-88
2023/11/09 08:07:07;;;;;;;2.40;1.52;;;21.30;56.90;;;;;;6055345;23;87904;-89
2023/11/09 08:09:35;;;;;;;4.28;1.60;;;21.30;56.80;;;;;;6053871;23;87046;-88
2023/11/09 08:12:00;;;;;;;8.40;1.65;;;21.30;56.90;;;;;;6052094;23;90377;-90
2023/11/09 08:14:26;;;;;;;6.20;1.45;;;21.40;57.00;;;;;;6050694;23;89850;-87
2023/11/09 08:16:51;;;;;;;3.15;1.33;;;21.40;57.00;;;;;;6050669;23;87356;-87
2023/11/09 08:19:17;;;;;;;3.15;1.45;;;21.40;57.20;;;;;;6050152;23;89356;-85
2023/11/09 08:21:43;;;;;;;2.83;1.48;;;21.40;57.30;;;;;;6052576;23;88580;-88
2023/11/09 08:24:09;;;;;;;3.38;1.50;;;21.50;57.30;;;;;;6052048;23;88308;-86
2023/11/09 08:26:34;;;;;;;6.88;1.88;;;21.50;57.30;;;;;;6051631;23;87285;-86
2023/11/09 08:29:00;;;;;;;4.60;1.80;;;21.50;57.40;;;;;;6044887;23;87070;-87
2023/11/09 08:31:26;;;;;;;6.78;1.98;;;21.50;57.50;;;;;;6039370;23;91265;-85
2023/11/09 08:33:54;;;;;;;5.30;1.90;;;21.50;57.50;;;;;;6041035;23;92606;-88
2023/11/09 08:36:20;;;;;;;5.37;1.83;;;21.50;57.20;;;;;;6042212;23;87510;-86
2023/11/09 08:38:46;;;;;;;4.85;1.85;;;21.50;57.30;;;;;;6029431;23;89275;-86
2023/11/09 08:41:11;;;;;;;4.95;1.50;;;21.50;57.40;;;;;;6064618;23;88667;-87
2023/11/09 08:43:37;;;;;;;4.47;1.50;;;21.50;57.30;;;;;;6042035;23;87421;-88
2023/11/09 08:46:03;;;;;;;4.07;1.45;;;21.50;57.30;;;;;;6041066;23;87855;-86
2023/11/09 08:48:32;;;;;;;3.80;1.42;;;21.50;57.30;;;;;;6039297;23;87999;-85
2023/11/09 08:51:01;;;;;;;3.05;1.60;;;21.50;57.40;;;;;;6041082;23;88004;-87
2023/11/09 08:53:31;;;;;;;5.97;1.45;;;21.50;57.50;;;;;;6041773;23;90893;-86
2023/11/09 08:56:00;;;;;;;2.83;1.33;;;21.50;57.60;;;;;;6042452;23;88462;-86
2023/11/09 08:58:27;;;;;;;3.38;1.63;;;21.50;57.60;;;;;;6042955;23;87542;-86
2023/11/09 09:00:54;;;;;;;6.15;1.50;;;21.50;57.60;;;;;;6039068;23;89166;-87
2023/11/09 09:03:23;;;;;;;3.65;1.40;;;21.50;57.60;;;;;;6041061;23;90141;-86
2023/11/09 09:05:52;;;;;;;;;;;21.50;57.60;;;;;;6041229;23;87308;-86
2023/11/09 09:08:23;;;;;;;4.67;1.43;;;21.50;57.90;;;;;;6046421;23;87809;-87
2023/11/09 09:10:55;;;;;;;3.28;1.60;;;21.50;57.90;;;;;;6043731;23;87606;-87
2023/11/09 09:13:23;;;;;;;5.72;2.00;;;21.50;57.90;;;;;;6041976;23;87411;-87
2023/11/09 09:15:49;;;;;;;7.00;1.30;;;21.50;57.90;;;;;;6039828;23;88844;-88
2023/11/09 09:18:15;;;;;;;6.78;1.98;;;21.50;57.80;;;;;;6041095;23;88153;-87
2023/11/09 09:20:41;;;;;;;2.95;1.40;;;21.50;57.80;;;;;;6040659;23;88657;-85
2023/11/09 09:23:09;;;;;;;3.95;1.45;;;21.50;58.00;;;;;;6043006;23;87552;-87
2023/11/09 09:25:35;;;;;;;3.90;1.70;;;21.50;57.90;;;;;;6041458;23;87152;-86
2023/11/09 09:28:01;;;;;;;3.55;1.80;;;21.50;57.90;;;;;;6043862;23;87864;-87
2023/11/09 09:30:29;;;;;;;2.75;1.38;;;21.50;58.10;;;;;;6040996;23;90371;-86
2023/11/09 09:32:59;;;;;;;3.80;1.83;;;21.50;57.90;;;;;;6042665;23;87795;-86
2023/11/09 09:35:26;;;;;;;5.93;1.90;;;21.50;58.00;;;;;;6042016;23;87373;-83
2023/11/09 09:37:52;;;;;;;4.13;1.80;;;21.50;57.70;;;;;;6042629;23;86712;-86
2023/11/09 09:40:32;;;;;;;4.70;1.58;;;21.50;57.70;;;;;;6041327;23;88110;-86
2023/11/09 09:42:58;;;;;;;;;;;21.50;58.00;;;;;;6030768;23;88108;-85
2023/11/09 09:45:30;;;;;;;5.25;2.15;;;21.60;58.00;;;;;;6041183;23;88610;-87
2023/11/09 09:47:59;;;;;;;6.70;2.42;;;21.60;57.20;;;;;;6033726;23;89651;-87
2023/11/09 09:50:33;;;;;;;7.20;2.43;;;21.60;57.10;;;;;;6050328;23;90669;-86
2023/11/09 09:52:59;;;;;;;7.25;2.03;;;21.60;57.50;;;;;;6049688;23;90266;-86
2023/11/09 09:55:27;;;;;;;9.30;2.33;;;21.60;57.30;;;;;;6052211;23;87662;-86
2023/11/09 09:57:54;;;;;;;5.72;2.58;;;21.60;56.90;;;;;;6049425;23;89936;-86
2023/11/09 10:00:23;;;;;;;11.07;2.95;;;21.60;56.70;;;;;;6039842;23;89804;-86
2023/11/09 10:03:07;;;;;;;12.48;3.60;;;21.60;56.60;;;;;;6040387;23;89987;-85
2023/11/09 10:05:35;;;;;;;8.43;3.03;;;21.60;56.50;;;;;;6044024;23;87916;-86
2023/11/09 10:08:03;;;;;;;9.48;3.42;;;21.60;56.60;;;;;;6041802;23;88202;-85
2023/11/09 10:10:34;;;;;;;6.80;2.50;;;21.60;56.80;;;;;;6041878;23;88899;-86
2023/11/09 10:13:06;;;;;;;13.30;3.70;;;21.60;56.90;;;;;;6039901;23;91036;-86
2023/11/09 10:15:31;;;;;;;7.68;2.72;;;21.60;56.10;;;;;;6041358;23;87577;-86
2023/11/09 10:17:58;;;;;;;7.82;2.53;;;21.60;55.80;;;;;;6045167;23;87918;-85
2023/11/09 10:20:24;;;;;;;12.05;3.15;;;21.60;56.00;;;;;;6039740;23;90320;-86
2023/11/09 10:22:52;;;;;;;11.30;2.25;;;21.70;55.80;;;;;;6043290;23;87867;-86
2023/11/09 10:25:18;;;;;;;6.53;2.50;;;21.70;56.80;;;;;;6037897;23;87575;-85
2023/11/09 10:27:47;;;;;;;5.50;2.10;;;21.60;56.80;;;;;;6061941;23;86782;-85
2023/11/09 10:30:16;;;;;;;7.03;2.90;;;21.70;57.00;;;;;;6056267;23;87678;-85
2023/11/09 10:32:43;;;;;;;6.95;3.20;;;21.60;56.50;;;;;;6057335;23;90563;-82
2023/11/09 10:35:15;;;;;;;5.78;2.53;;;21.60;56.90;;;;;;6058301;23;88203;-84
2023/11/09 10:37:43;;;;;;;8.70;2.80;;;21.60;57.30;;;;;;6055467;23;87359;-86
2023/11/09 10:40:13;;;;;;;5.97;2.35;;;21.60;57.30;;;;;;6041517;23;87535;-86
2023/11/09 10:42:39;;;;;;;5.60;2.60;;;21.70;57.70;;;;;;6051509;23;87621;-88
2023/11/09 10:45:10;;;;;;;7.32;3.10;;;21.70;57.70;;;;;;6039048;23;87501;-86
2023/11/09 10:47:40;;;;;;;8.32;3.25;;;21.70;57.80;;;;;;6053578;23;87596;-85
2023/11/09 10:50:20;;;;;;;12.10;3.67;;;21.60;57.60;;;;;;6047372;23;97161;-84
2023/11/09 10:52:46;;;;;;;9.77;2.63;;;21.70;57.60;;;;;;6046503;23;95697;-86
2023/11/09 10:55:12;;;;;;;9.45;2.60;;;21.70;57.90;;;;;;6046116;23;92447;-86
2023/11/09 10:57:43;;;;;;;7.55;2.72;;;21.70;58.00;;;;;;6046017;23;92641;-87
2023/11/09 11:00:25;;;;;;;10.10;2.70;;;21.70;58.50;;;;;;6045742;23;96414;-85
2023/11/09 11:02:53;;;;;;;9.25;2.88;;;21.60;58.80;;;;;;6045522;23;96113;-88
2023/11/09 11:05:25;;;;;;;7.47;2.72;;;21.60;59.20;;;;;;6049066;23;92619;-86
2023/11/09 11:07:59;;;;;;;13.35;3.47;;;21.60;59.50;;;;;;6049154;23;92433;-86
2023/11/09 11:10:27;;;;;;;9.77;2.92;;;21.60;59.60;;;;;;6047753;23;95385;-86
2023/11/09 11:12:55;;;;;;;9.15;2.85;;;21.60;59.70;;;;;;6047689;23;95898;-88
2023/11/09 11:15:32;;;;;;;8.50;2.70;;;21.60;60.00;;;;;;6048067;23;92468;-88
2023/11/09 11:18:12;;;;;;;9.05;2.70;;;21.60;59.90;;;;;;6047992;23;91642;-86
2023/11/09 11:21:09;;;;;;;9.48;2.80;;;21.60;59.50;;;;;;6046248;23;94628;-85
2023/11/09 11:24:00;;;;;;;5.82;2.58;;;21.60;59.00;;;;;;6042635;23;98154;-86
2023/11/09 11:26:41;;;;;;;7.65;2.63;;;21.60;59.50;;;;;;6039323;23;93326;-88
2023/11/09 11:29:07;;;;;;;5.82;2.60;;;21.70;59.50;;;;;;6041328;23;93813;-89
2023/11/09 11:31:38;;;;;;;6.18;2.78;;;21.60;59.40;;;;;;6038266;23;95726;-86
2023/11/09 11:34:03;;;;;;;5.72;2.42;;;21.70;59.50;;;;;;6037050;23;95503;-87
2023/11/09 11:36:33;;;;;;;7.53;2.80;;;21.70;59.50;;;;;;6035717;23;92695;-86
2023/11/09 11:39:35;;;;;;;6.55;2.53;;;21.60;59.50;;;;;;6031233;23;92556;-89
2023/11/09 11:42:22;;;;;;;7.53;3.03;;;21.60;59.50;;;;;;6037707;23;95481;-88
2023/11/09 11:44:59;;;;;;;7.35;2.53;;;21.70;59.60;;;;;;6040619;23;92158;-87
2023/11/09 11:48:19;;;;;;;5.18;2.40;;;21.60;59.90;;;;;;6042219;23;92242;-87
2023/11/09 11:50:43;;;;;;;6.97;2.47;;;21.60;60.00;;;;;;6030151;23;92625;-87
2023/11/09 11:53:28;;;;;;;8.57;2.70;;;21.70;60.30;;;;;;6039182;23;97035;-85
2023/11/09 11:56:31;;;;;;;6.93;2.53;;;21.70;60.30;;;;;;6036241;23;96344;-87
2023/11/09 11:59:13;;;;;;;5.90;3.05;;;21.70;60.90;;;;;;6039468;23;92335;-87
2023/11/09 12:01:40;;;;;;;9.13;2.80;;;21.70;61.20;;;;;;6040481;23;93531;-85
2023/11/09 12:04:06;;;;;;;8.77;3.10;;;21.70;61.50;;;;;;6037236;23;94255;-88
2023/11/09 12:06:34;;;;;;;9.10;2.60;;;21.70;61.30;;;;;;6036910;23;96097;-86
2023/11/09 12:09:08;;;;;;;7.30;2.47;;;21.60;61.40;;;;;;6037215;23;92782;-89
2023/11/09 12:11:45;;;;;;;10.98;2.90;;;21.70;61.10;;;;;;6040137;23;92031;-89
2023/11/09 12:14:12;;;;;;;8.55;2.88;;;21.70;61.20;;;;;;6037670;23;100038;-86
2023/11/09 12:16:39;;;;;;;5.43;2.47;;;21.70;61.40;;;;;;6040194;23;92507;-85
2023/11/09 12:19:06;;;;;;;10.75;3.13;;;21.70;61.30;;;;;;6036211;23;93480;-86
2023/11/09 12:21:34;;;;;;;7.53;2.70;;;21.70;61.10;;;;;;6040071;23;92736;-85
2023/11/09 12:24:00;;;;;;;6.80;2.80;;;21.70;61.00;;;;;;6037942;23;92830;-86
2023/11/09 12:26:32;;;;;;;7.72;2.60;;;21.70;61.30;;;;;;6040219;23;93111;-85
2023/11/09 12:29:00;;;;;;;8.02;2.63;;;21.70;61.70;;;;;;6040369;23;93710;-86
2023/11/09 12:31:28;;;;;;;7.28;2.25;;;21.70;62.00;;;;;;6037485;23;92809;-85
2023/11/09 12:34:05;;;;;;;6.80;2.50;;;21.70;62.20;;;;;;6037717;23;93147;-84
2023/11/09 12:36:38;;;;;;;7.18;2.83;;;21.80;63.30;;;;;;6040044;23;93558;-85
2023/11/09 12:39:22;;;;;;;11.20;2.58;;;21.70;62.80;;;;;;6040753;23;92856;-90
2023/11/09 12:41:47;;;;;;;8.98;3.38;;;21.70;60.80;;;;;;6052267;23;92467;-90
2023/11/09 12:44:15;;;;;;;11.85;3.13;;;21.70;62.10;;;;;;6049003;23;96898;-85
2023/11/09 12:46:41;;;;;;;6.25;2.53;;;21.70;61.60;;;;;;6050128;23;94270;-87
2023/11/09 12:49:08;;;;;;;7.00;2.22;;;21.70;62.10;;;;;;6048673;23;92423;-85
2023/11/09 12:51:35;;;;;;;7.40;2.50;;;21.70;60.50;;;;;;6040657;23;92737;-86
2023/11/09 12:54:01;;;;;;;254.77;72.45;;;21.70;61.40;;;;;;6047877;23;95824;-87
2023/11/09 12:56:38;;;;;;;10.27;2.88;;;21.70;61.10;;;;;;6055454;23;92586;-93
2023/11/09 12:59:07;;;;;;;14.25;4.32;;;21.80;60.80;;;;;;6057381;23;92239;-91
2023/11/09 13:01:33;;;;;;;12.63;4.78;;;21.90;60.60;;;;;;6054492;23;91725;-88
2023/11/09 13:03:58;;;;;;;16.73;5.15;;;21.90;60.80;;;;;;6049795;23;95632;-91